< < Back
Terminal Aerodrome Forecast


Current Version              Previous Versions:   1  2  3  4  5  6  7  8  9  

Terminal Aerodrome Forecast

098
FTUS42 KILM 172300
TAFILM
TAF
KILM 172321Z 1800/1824 04004KT P6SM FEW030 SCT100
     FM180900 02003KT 5SM BR SCT005 BKN015
     FM181300 04006KT P6SM FEW007 BKN020
     FM181600 07007KT P6SM SCT025 SCT040=



Latest METAR

044
SAUS70 KWBC 180900 RRA
MTRILM
METAR KILM 180853Z AUTO 04004KT 10SM CLR 19/18 A2990 RMK AO2 SLP124
T01890178 55002


USA.gov is the U.S. government's official web portal to all federal, state and local government web resources and services.